VJT34I KLAX-KTRK
Flight info
| Callsign | VJT34I |
|---|---|
| Flight time | N/A |
| Altitude | 38000 |
| Route | LADYJ4 CSTRO NURAY SHIMR |
| Aircraft | A320/M-SDE3FGHIRWY/LB1 |
Departure
| Time | 2026-05-05 14:58 |
|---|---|
| Airport | Los Angeles International Airport (KLAX) |
Arrival
| Time | N/A |
|---|---|
| Airport | Truckee Tahoe Airport (KTRK) |
| Time | Latitude | Longitude | Altitude | Speed | Heading |
|---|---|---|---|---|---|
| 2026-05-05 14:21 | 33.93337 | -118.39727 | 95 ft | 0 kts | 277° |
| 2026-05-05 14:31 | 33.93336 | -118.39725 | 93 ft | 0 kts | 104° |
| 2026-05-05 14:49 | 33.93334 | -118.39723 | 95 ft | 1 kts | 123° |
| 2026-05-05 14:49 | 33.93330 | -118.39724 | 93 ft | 0 kts | 173° |
| 2026-05-05 14:50 | 33.93323 | -118.39730 | 95 ft | 3 kts | 212° |
| 2026-05-05 14:50 | 33.93319 | -118.39764 | 94 ft | 6 kts | 272° |
| 2026-05-05 14:50 | 33.93357 | -118.39807 | 95 ft | 10 kts | 349° |
| 2026-05-05 14:50 | 33.93386 | -118.39810 | 95 ft | 0 kts | 353° |
| 2026-05-05 14:51 | 33.93391 | -118.39811 | 95 ft | 1 kts | 353° |
| 2026-05-05 14:51 | 33.93415 | -118.39814 | 93 ft | 6 kts | 353° |
| 2026-05-05 14:51 | 33.93456 | -118.39790 | 94 ft | 9 kts | 58° |
| 2026-05-05 14:52 | 33.93464 | -118.39724 | 93 ft | 6 kts | 85° |
| 2026-05-05 14:52 | 33.93472 | -118.39653 | 93 ft | 11 kts | 82° |
| 2026-05-05 14:52 | 33.93479 | -118.39592 | 94 ft | 7 kts | 83° |
| 2026-05-05 14:52 | 33.93486 | -118.39525 | 94 ft | 7 kts | 83° |
| 2026-05-05 14:53 | 33.93493 | -118.39448 | 95 ft | 12 kts | 83° |
| 2026-05-05 14:53 | 33.93505 | -118.39333 | 93 ft | 16 kts | 82° |
| 2026-05-05 14:53 | 33.93518 | -118.39211 | 93 ft | 11 kts | 82° |
| 2026-05-05 14:53 | 33.93529 | -118.39100 | 93 ft | 15 kts | 82° |
| 2026-05-05 14:54 | 33.93544 | -118.38954 | 93 ft | 20 kts | 82° |
| 2026-05-05 14:54 | 33.93562 | -118.38769 | 95 ft | 25 kts | 83° |
| 2026-05-05 14:54 | 33.93578 | -118.38615 | 95 ft | 6 kts | 84° |
| 2026-05-05 14:54 | 33.93586 | -118.38545 | 94 ft | 10 kts | 82° |
| 2026-05-05 14:55 | 33.93596 | -118.38442 | 95 ft | 15 kts | 83° |
| 2026-05-05 14:55 | 33.93606 | -118.38345 | 94 ft | 8 kts | 82° |
| 2026-05-05 14:55 | 33.93635 | -118.38277 | 96 ft | 9 kts | 24° |
| 2026-05-05 14:55 | 33.93650 | -118.38276 | 96 ft | 0 kts | 353° |
| 2026-05-05 14:56 | 33.93651 | -118.38276 | 96 ft | 1 kts | 352° |
| 2026-05-05 14:56 | 33.93663 | -118.38278 | 97 ft | 3 kts | 352° |
| 2026-05-05 14:57 | 33.93694 | -118.38283 | 97 ft | 8 kts | 351° |
| 2026-05-05 14:57 | 33.93729 | -118.38327 | 97 ft | 9 kts | 268° |
| 2026-05-05 14:57 | 33.93724 | -118.38402 | 98 ft | 0 kts | 261° |
| 2026-05-05 14:58 | 33.93700 | -118.38630 | 96 ft | 71 kts | 263° |
| 2026-05-05 14:58 | 33.93608 | -118.39535 | 97 ft | 142 kts | 263° |
| 2026-05-05 14:58 | 33.93476 | -118.40850 | 597 ft | 161 kts | 262° |
| 2026-05-05 14:58 | 33.93327 | -118.42198 | 1518 ft | 164 kts | 263° |
| 2026-05-05 14:59 | 33.93183 | -118.43587 | 2244 ft | 178 kts | 262° |
| 2026-05-05 14:59 | 33.93017 | -118.45169 | 2756 ft | 204 kts | 262° |
| 2026-05-05 14:59 | 33.92880 | -118.46987 | 3403 ft | 230 kts | 267° |
| 2026-05-05 14:59 | 33.92821 | -118.48998 | 4249 ft | 250 kts | 269° |
| 2026-05-05 15:00 | 33.92754 | -118.51120 | 4816 ft | 261 kts | 267° |
| 2026-05-05 15:00 | 33.92664 | -118.52594 | 4939 ft | 261 kts | 266° |
| 2026-05-05 15:00 | 33.92431 | -118.55473 | 5022 ft | 261 kts | 265° |
| 2026-05-05 15:00 | 33.92235 | -118.57682 | 5603 ft | 270 kts | 264° |
| 2026-05-05 15:01 | 33.92152 | -118.59918 | 6906 ft | 269 kts | 276° |
| 2026-05-05 15:01 | 33.92643 | -118.62106 | 7583 ft | 273 kts | 296° |
| 2026-05-05 15:01 | 33.93786 | -118.63954 | 7868 ft | 274 kts | 318° |
| 2026-05-05 15:01 | 33.95360 | -118.65199 | 7990 ft | 275 kts | 332° |
| 2026-05-05 15:02 | 33.97051 | -118.66278 | 8005 ft | 274 kts | 331° |
| 2026-05-05 15:02 | 33.98818 | -118.67198 | 8602 ft | 279 kts | 343° |
| 2026-05-05 15:02 | 34.00739 | -118.67580 | 9803 ft | 283 kts | 356° |
| 2026-05-05 15:02 | 34.02761 | -118.67518 | 10528 ft | 302 kts | 1° |
| 2026-05-05 15:03 | 34.04924 | -118.67397 | 11224 ft | 317 kts | 1° |
| 2026-05-05 15:03 | 34.07145 | -118.67370 | 12104 ft | 322 kts | 354° |
| 2026-05-05 15:03 | 34.09362 | -118.67858 | 13050 ft | 326 kts | 342° |
| 2026-05-05 15:03 | 34.11532 | -118.68718 | 13995 ft | 331 kts | 340° |
| 2026-05-05 15:04 | 34.13726 | -118.69606 | 14854 ft | 335 kts | 340° |
| 2026-05-05 15:04 | 34.15949 | -118.70509 | 15716 ft | 339 kts | 340° |
| 2026-05-05 15:04 | 34.18198 | -118.71425 | 16575 ft | 343 kts | 340° |
| 2026-05-05 15:04 | 34.20472 | -118.72349 | 17409 ft | 347 kts | 341° |
| 2026-05-05 15:05 | 34.25109 | -118.74230 | 19015 ft | 356 kts | 341° |
| 2026-05-05 15:05 | 34.27469 | -118.75189 | 19782 ft | 360 kts | 341° |
| 2026-05-05 15:05 | 34.29864 | -118.76164 | 20553 ft | 364 kts | 341° |
| 2026-05-05 15:06 | 34.32286 | -118.77147 | 21298 ft | 368 kts | 341° |
| 2026-05-05 15:06 | 34.34730 | -118.78137 | 22020 ft | 373 kts | 341° |
| 2026-05-05 15:06 | 34.37203 | -118.79140 | 22750 ft | 377 kts | 341° |
| 2026-05-05 15:06 | 34.39701 | -118.80155 | 23500 ft | 381 kts | 341° |
| 2026-05-05 15:07 | 34.42228 | -118.81181 | 24137 ft | 385 kts | 341° |
| 2026-05-05 15:07 | 34.44779 | -118.82219 | 24778 ft | 389 kts | 341° |
| 2026-05-05 15:07 | 34.47360 | -118.83273 | 25409 ft | 392 kts | 341° |
| 2026-05-05 15:07 | 34.49961 | -118.84338 | 26028 ft | 395 kts | 341° |
| 2026-05-05 15:08 | 34.52575 | -118.85410 | 26633 ft | 399 kts | 341° |
| 2026-05-05 15:08 | 34.55219 | -118.86491 | 27231 ft | 402 kts | 341° |
| 2026-05-05 15:08 | 34.57873 | -118.87575 | 27856 ft | 403 kts | 343° |
| 2026-05-05 15:08 | 34.59634 | -118.88295 | 28300 ft | 404 kts | 342° |
| 2026-05-05 15:09 | 34.63210 | -118.89755 | 29080 ft | 407 kts | 343° |
| 2026-05-05 15:09 | 34.64995 | -118.90485 | 29441 ft | 410 kts | 343° |
| 2026-05-05 15:09 | 34.68597 | -118.91960 | 30163 ft | 414 kts | 343° |
| 2026-05-05 15:09 | 34.71343 | -118.93087 | 30600 ft | 418 kts | 342° |
| 2026-05-05 15:10 | 34.73218 | -118.93859 | 30890 ft | 421 kts | 342° |
| 2026-05-05 15:10 | 34.76006 | -118.95005 | 31326 ft | 424 kts | 342° |
| 2026-05-05 15:10 | 34.78811 | -118.96156 | 31744 ft | 428 kts | 342° |
| 2026-05-05 15:10 | 34.81599 | -118.97301 | 32283 ft | 428 kts | 342° |
| 2026-05-05 15:11 | 34.84431 | -118.98467 | 32893 ft | 428 kts | 342° |
| 2026-05-05 15:11 | 34.87251 | -118.99630 | 33516 ft | 428 kts | 341° |
| 2026-05-05 15:11 | 34.90074 | -119.00797 | 34120 ft | 428 kts | 341° |
| 2026-05-05 15:11 | 34.92889 | -119.01964 | 34590 ft | 429 kts | 341° |
| 2026-05-05 15:12 | 34.95711 | -119.03129 | 35071 ft | 428 kts | 340° |
| 2026-05-05 15:12 | 34.98542 | -119.04298 | 35487 ft | 430 kts | 341° |
| 2026-05-05 15:12 | 35.01383 | -119.05471 | 35916 ft | 431 kts | 341° |
| 2026-05-05 15:12 | 35.04228 | -119.06645 | 36354 ft | 432 kts | 340° |
| 2026-05-05 15:13 | 35.07077 | -119.07824 | 36786 ft | 432 kts | 340° |
| 2026-05-05 15:13 | 35.09928 | -119.09007 | 37213 ft | 433 kts | 340° |
| 2026-05-05 15:13 | 35.12778 | -119.10188 | 37636 ft | 433 kts | 340° |
| 2026-05-05 15:13 | 35.15638 | -119.11375 | 37954 ft | 435 kts | 340° |
| 2026-05-05 15:14 | 35.18505 | -119.12564 | 38033 ft | 434 kts | 340° |
| 2026-05-05 15:14 | 35.24203 | -119.14932 | 38026 ft | 432 kts | 340° |
| 2026-05-05 15:15 | 35.29892 | -119.17298 | 38022 ft | 431 kts | 340° |
| 2026-05-05 15:15 | 35.35572 | -119.19663 | 38022 ft | 431 kts | 340° |
| 2026-05-05 15:16 | 35.41256 | -119.22041 | 38022 ft | 431 kts | 340° |
| 2026-05-05 15:16 | 35.46935 | -119.24408 | 38035 ft | 431 kts | 341° |
| 2026-05-05 15:17 | 35.52639 | -119.26696 | 38048 ft | 431 kts | 341° |
| 2026-05-05 15:17 | 35.58340 | -119.28958 | 38067 ft | 431 kts | 342° |
| 2026-05-05 15:18 | 35.63997 | -119.31220 | 38073 ft | 430 kts | 342° |
| 2026-05-05 15:18 | 35.69680 | -119.33501 | 38078 ft | 429 kts | 342° |
| 2026-05-05 15:19 | 35.75351 | -119.35788 | 38080 ft | 429 kts | 342° |
| 2026-05-05 15:19 | 35.81019 | -119.38078 | 38075 ft | 428 kts | 342° |
| 2026-05-05 15:20 | 35.86678 | -119.40365 | 38063 ft | 428 kts | 342° |
| 2026-05-05 15:20 | 35.92333 | -119.42655 | 38062 ft | 427 kts | 342° |
| 2026-05-05 15:21 | 35.97986 | -119.44947 | 38062 ft | 427 kts | 342° |
| 2026-05-05 15:21 | 36.03628 | -119.47243 | 38067 ft | 427 kts | 342° |
| 2026-05-05 15:22 | 36.09232 | -119.49525 | 38072 ft | 426 kts | 342° |
| 2026-05-05 15:22 | 36.14870 | -119.51818 | 38069 ft | 426 kts | 342° |
| 2026-05-05 15:23 | 36.20504 | -119.54110 | 38063 ft | 426 kts | 343° |
| 2026-05-05 15:23 | 36.26140 | -119.56410 | 38074 ft | 425 kts | 343° |
| 2026-05-05 15:24 | 36.31755 | -119.58708 | 38076 ft | 425 kts | 343° |
| 2026-05-05 15:24 | 36.37370 | -119.61012 | 38075 ft | 424 kts | 344° |
| 2026-05-05 15:25 | 36.42971 | -119.63314 | 38077 ft | 424 kts | 344° |
| 2026-05-05 15:25 | 36.48567 | -119.65613 | 38075 ft | 423 kts | 344° |
| 2026-05-05 15:26 | 36.54157 | -119.67907 | 38070 ft | 423 kts | 344° |
| 2026-05-05 15:26 | 36.59713 | -119.70134 | 38081 ft | 420 kts | 349° |
| 2026-05-05 15:27 | 36.65431 | -119.71524 | 38088 ft | 418 kts | 352° |
| 2026-05-05 15:27 | 36.71140 | -119.72874 | 38080 ft | 417 kts | 352° |
| 2026-05-05 15:28 | 36.76849 | -119.74231 | 38078 ft | 417 kts | 352° |
| 2026-05-05 15:28 | 36.82549 | -119.75581 | 38077 ft | 417 kts | 352° |
| 2026-05-05 15:29 | 36.88252 | -119.76929 | 38075 ft | 416 kts | 352° |
| 2026-05-05 15:29 | 36.93947 | -119.78287 | 38071 ft | 416 kts | 352° |
| 2026-05-05 15:30 | 36.99636 | -119.79651 | 38062 ft | 416 kts | 352° |
| 2026-05-05 15:30 | 37.05276 | -119.80995 | 38061 ft | 415 kts | 352° |
| 2026-05-05 15:31 | 37.10958 | -119.82351 | 38049 ft | 415 kts | 352° |
| 2026-05-05 15:31 | 37.16601 | -119.83698 | 38032 ft | 410 kts | 353° |
| 2026-05-05 15:32 | 37.22214 | -119.85040 | 38036 ft | 410 kts | 353° |
| 2026-05-05 15:32 | 37.27820 | -119.86390 | 38035 ft | 410 kts | 353° |
| 2026-05-05 15:33 | 37.33431 | -119.87749 | 38035 ft | 410 kts | 353° |
| 2026-05-05 15:33 | 37.39026 | -119.89098 | 38036 ft | 409 kts | 353° |
| 2026-05-05 15:34 | 37.44628 | -119.90442 | 38038 ft | 410 kts | 353° |
| 2026-05-05 15:34 | 37.50229 | -119.91791 | 38044 ft | 410 kts | 353° |
| 2026-05-05 15:35 | 37.55828 | -119.93141 | 38044 ft | 409 kts | 354° |
| 2026-05-05 15:35 | 37.61414 | -119.94496 | 38061 ft | 408 kts | 354° |
| 2026-05-05 15:36 | 37.66986 | -119.95856 | 38062 ft | 407 kts | 354° |
| 2026-05-05 15:36 | 37.72545 | -119.97210 | 38060 ft | 407 kts | 354° |
| 2026-05-05 15:37 | 37.78060 | -119.98552 | 38055 ft | 406 kts | 354° |
| 2026-05-05 15:37 | 37.83611 | -119.99908 | 38055 ft | 405 kts | 354° |
| 2026-05-05 15:38 | 37.89133 | -120.01258 | 38052 ft | 404 kts | 354° |
| 2026-05-05 15:38 | 37.94687 | -120.02614 | 38041 ft | 404 kts | 355° |
| 2026-05-05 15:39 | 38.00199 | -120.03959 | 38048 ft | 403 kts | 355° |
| 2026-05-05 15:39 | 38.05678 | -120.05304 | 38046 ft | 403 kts | 355° |
| 2026-05-05 15:40 | 38.11187 | -120.06662 | 37807 ft | 402 kts | 355° |
| 2026-05-05 15:40 | 38.13926 | -120.07335 | 37517 ft | 400 kts | 355° |
| 2026-05-05 15:40 | 38.16653 | -120.08004 | 37251 ft | 399 kts | 355° |
| 2026-05-05 15:40 | 38.19382 | -120.08676 | 36989 ft | 398 kts | 355° |
| 2026-05-05 15:41 | 38.22105 | -120.09346 | 36720 ft | 398 kts | 356° |
| 2026-05-05 15:41 | 38.24825 | -120.09999 | 36460 ft | 397 kts | 357° |
| 2026-05-05 15:41 | 38.27539 | -120.10576 | 36201 ft | 395 kts | 358° |
| 2026-05-05 15:41 | 38.30246 | -120.11101 | 35899 ft | 391 kts | 359° |
| 2026-05-05 15:42 | 38.32922 | -120.11597 | 35425 ft | 387 kts | 360° |
| 2026-05-05 15:42 | 38.35573 | -120.12085 | 34942 ft | 384 kts | 360° |
| 2026-05-05 15:42 | 38.38209 | -120.12580 | 34453 ft | 382 kts | 0° |
| 2026-05-05 15:42 | 38.40829 | -120.13085 | 33943 ft | 380 kts | 0° |
| 2026-05-05 15:43 | 38.43428 | -120.13596 | 33395 ft | 376 kts | 360° |
| 2026-05-05 15:43 | 38.45998 | -120.14106 | 32899 ft | 372 kts | 359° |
| 2026-05-05 15:43 | 38.48544 | -120.14611 | 32411 ft | 368 kts | 359° |
| 2026-05-05 15:43 | 38.51068 | -120.15113 | 31895 ft | 365 kts | 359° |
| 2026-05-05 15:44 | 38.53565 | -120.15610 | 31451 ft | 361 kts | 358° |
| 2026-05-05 15:44 | 38.56037 | -120.16101 | 30995 ft | 358 kts | 358° |
| 2026-05-05 15:44 | 38.58494 | -120.16585 | 30528 ft | 356 kts | 358° |
| 2026-05-05 15:44 | 38.60938 | -120.17068 | 30086 ft | 355 kts | 358° |
| 2026-05-05 15:45 | 38.63374 | -120.17550 | 29614 ft | 353 kts | 358° |
| 2026-05-05 15:45 | 38.65787 | -120.18028 | 29190 ft | 349 kts | 357° |
| 2026-05-05 15:45 | 38.68183 | -120.18502 | 28770 ft | 347 kts | 357° |
| 2026-05-05 15:45 | 38.70558 | -120.18972 | 28360 ft | 344 kts | 357° |
| 2026-05-05 15:46 | 38.72915 | -120.19440 | 27958 ft | 341 kts | 357° |
| 2026-05-05 15:46 | 38.75251 | -120.19905 | 27555 ft | 338 kts | 357° |
| 2026-05-05 15:46 | 38.77568 | -120.20366 | 27139 ft | 336 kts | 357° |
| 2026-05-05 15:46 | 38.79869 | -120.20823 | 26733 ft | 333 kts | 357° |
| 2026-05-05 15:47 | 38.82151 | -120.21279 | 26316 ft | 331 kts | 357° |
| 2026-05-05 15:47 | 38.83657 | -120.21579 | 26038 ft | 329 kts | 357° |
| 2026-05-05 15:47 | 38.86635 | -120.22174 | 25482 ft | 325 kts | 356° |
| 2026-05-05 15:47 | 38.88892 | -120.22626 | 25027 ft | 323 kts | 356° |
| 2026-05-05 15:48 | 38.91105 | -120.23072 | 24608 ft | 321 kts | 356° |
| 2026-05-05 15:48 | 38.93306 | -120.23517 | 24170 ft | 319 kts | 356° |
| 2026-05-05 15:48 | 38.95497 | -120.23958 | 23731 ft | 319 kts | 356° |
| 2026-05-05 15:48 | 38.97687 | -120.24394 | 23232 ft | 319 kts | 356° |
| 2026-05-05 15:49 | 38.99871 | -120.24829 | 22775 ft | 317 kts | 356° |
| 2026-05-05 15:49 | 39.02014 | -120.25261 | 22342 ft | 314 kts | 355° |
| 2026-05-05 15:49 | 39.04167 | -120.25695 | 21888 ft | 312 kts | 355° |
| 2026-05-05 15:49 | 39.06309 | -120.26123 | 21460 ft | 310 kts | 355° |
| 2026-05-05 15:50 | 39.08433 | -120.26546 | 21025 ft | 308 kts | 355° |
| 2026-05-05 15:50 | 39.10553 | -120.26972 | 20594 ft | 307 kts | 355° |
| 2026-05-05 15:50 | 39.12657 | -120.27397 | 20160 ft | 306 kts | 355° |
| 2026-05-05 15:50 | 39.14758 | -120.27820 | 19730 ft | 305 kts | 355° |
| 2026-05-05 15:51 | 39.16850 | -120.28242 | 19305 ft | 304 kts | 355° |
| 2026-05-05 15:51 | 39.18947 | -120.28666 | 18873 ft | 304 kts | 354° |
| 2026-05-05 15:51 | 39.21035 | -120.29084 | 18443 ft | 304 kts | 354° |
| 2026-05-05 15:51 | 39.23126 | -120.29500 | 17974 ft | 304 kts | 354° |
| 2026-05-05 15:52 | 39.25212 | -120.29916 | 17531 ft | 302 kts | 355° |
| 2026-05-05 15:52 | 39.27280 | -120.30335 | 17101 ft | 300 kts | 354° |
| 2026-05-05 15:52 | 39.29339 | -120.30753 | 16678 ft | 299 kts | 355° |
| 2026-05-05 15:52 | 39.31390 | -120.31169 | 16246 ft | 299 kts | 355° |
| 2026-05-05 15:53 | 39.32751 | -120.31446 | 15949 ft | 298 kts | 355° |
| 2026-05-05 15:53 | 39.34796 | -120.31862 | 15527 ft | 297 kts | 355° |
| 2026-05-05 15:53 | 39.36827 | -120.32275 | 15112 ft | 295 kts | 355° |
| 2026-05-05 15:53 | 39.38852 | -120.32685 | 14655 ft | 294 kts | 355° |
| 2026-05-05 15:54 | 39.40861 | -120.33091 | 14231 ft | 287 kts | 355° |
| 2026-05-05 15:54 | 39.42775 | -120.33483 | 13843 ft | 272 kts | 355° |
| 2026-05-05 15:54 | 39.44606 | -120.33859 | 13437 ft | 259 kts | 355° |
| 2026-05-05 15:54 | 39.46346 | -120.34215 | 13058 ft | 246 kts | 355° |
| 2026-05-05 15:55 | 39.48003 | -120.34554 | 12729 ft | 236 kts | 356° |
| 2026-05-05 15:55 | 39.49574 | -120.34872 | 12396 ft | 227 kts | 356° |
| 2026-05-05 15:55 | 39.51101 | -120.35182 | 12078 ft | 218 kts | 356° |
| 2026-05-05 15:55 | 39.52571 | -120.35479 | 11779 ft | 210 kts | 356° |
| 2026-05-05 15:56 | 39.53973 | -120.35580 | 11561 ft | 191 kts | 19° |
| 2026-05-05 15:56 | 39.54924 | -120.34597 | 11516 ft | 177 kts | 64° |
| 2026-05-05 15:56 | 39.54896 | -120.33004 | 11470 ft | 192 kts | 111° |
| 2026-05-05 15:56 | 39.53844 | -120.31845 | 11435 ft | 214 kts | 158° |
| 2026-05-05 15:57 | 39.52337 | -120.31514 | 11304 ft | 224 kts | 167° |
| 2026-05-05 15:57 | 39.50817 | -120.31143 | 11058 ft | 217 kts | 159° |
| 2026-05-05 15:57 | 39.49390 | -120.30645 | 10804 ft | 208 kts | 158° |
| 2026-05-05 15:57 | 39.48014 | -120.30137 | 10505 ft | 204 kts | 157° |
| 2026-05-05 15:58 | 39.46664 | -120.29633 | 10210 ft | 201 kts | 156° |
| 2026-05-05 15:58 | 39.45332 | -120.29125 | 9927 ft | 196 kts | 153° |
| 2026-05-05 15:58 | 39.44111 | -120.28424 | 9608 ft | 189 kts | 144° |
| 2026-05-05 15:58 | 39.43037 | -120.27512 | 9290 ft | 182 kts | 133° |
| 2026-05-05 15:59 | 39.42079 | -120.26467 | 8988 ft | 179 kts | 133° |
| 2026-05-05 15:59 | 39.41122 | -120.25424 | 8689 ft | 181 kts | 133° |
| 2026-05-05 15:59 | 39.40193 | -120.24425 | 8409 ft | 166 kts | 135° |
| 2026-05-05 15:59 | 39.39345 | -120.23515 | 8147 ft | 152 kts | 134° |
| 2026-05-05 16:00 | 39.38556 | -120.22664 | 7891 ft | 145 kts | 135° |
| 2026-05-05 16:00 | 39.37768 | -120.21804 | 7772 ft | 161 kts | 134° |
| 2026-05-05 16:00 | 39.36901 | -120.20841 | 8623 ft | 164 kts | 133° |
| 2026-05-05 16:00 | 39.35980 | -120.19823 | 9088 ft | 186 kts | 133° |
| 2026-05-05 16:01 | 39.34925 | -120.18685 | 9618 ft | 206 kts | 133° |
| 2026-05-05 16:01 | 39.33788 | -120.17484 | 10018 ft | 213 kts | 133° |
| 2026-05-05 16:01 | 39.32853 | -120.16071 | 10327 ft | 203 kts | 109° |
| 2026-05-05 16:01 | 39.32535 | -120.14372 | 10639 ft | 191 kts | 83° |
| 2026-05-05 16:02 | 39.32835 | -120.12753 | 10956 ft | 184 kts | 59° |
| 2026-05-05 16:02 | 39.33635 | -120.11493 | 11268 ft | 182 kts | 37° |
| 2026-05-05 16:02 | 39.34761 | -120.10802 | 11584 ft | 185 kts | 15° |
| 2026-05-05 16:02 | 39.36065 | -120.10816 | 11909 ft | 193 kts | 351° |
| 2026-05-05 16:03 | 39.37282 | -120.11630 | 12244 ft | 205 kts | 328° |
| 2026-05-05 16:03 | 39.38350 | -120.12852 | 12472 ft | 207 kts | 322° |
| 2026-05-05 16:03 | 39.39321 | -120.14270 | 12557 ft | 211 kts | 318° |
| 2026-05-05 16:03 | 39.40255 | -120.15733 | 12775 ft | 212 kts | 317° |
| 2026-05-05 16:04 | 39.41192 | -120.17219 | 12918 ft | 214 kts | 317° |
| 2026-05-05 16:04 | 39.42133 | -120.18712 | 12936 ft | 213 kts | 317° |
| 2026-05-05 16:04 | 39.43071 | -120.20196 | 12940 ft | 213 kts | 317° |
| 2026-05-05 16:04 | 39.44009 | -120.21677 | 12939 ft | 213 kts | 317° |
| 2026-05-05 16:05 | 39.44946 | -120.23159 | 12936 ft | 213 kts | 317° |
| 2026-05-05 16:05 | 39.45884 | -120.24642 | 12936 ft | 213 kts | 317° |
| 2026-05-05 16:05 | 39.46822 | -120.26121 | 12935 ft | 213 kts | 317° |
| 2026-05-05 16:05 | 39.47759 | -120.27601 | 12917 ft | 213 kts | 317° |
| 2026-05-05 16:06 | 39.48751 | -120.28942 | 12750 ft | 205 kts | 329° |
| 2026-05-05 16:06 | 39.49890 | -120.30032 | 12571 ft | 202 kts | 332° |
| 2026-05-05 16:06 | 39.51044 | -120.31076 | 12389 ft | 201 kts | 333° |
| 2026-05-05 16:06 | 39.52195 | -120.32110 | 12216 ft | 201 kts | 333° |
| 2026-05-05 16:07 | 39.53305 | -120.33224 | 12049 ft | 207 kts | 318° |
| 2026-05-05 16:07 | 39.53890 | -120.34978 | 11952 ft | 224 kts | 282° |
| 2026-05-05 16:07 | 39.53652 | -120.37009 | 11938 ft | 234 kts | 257° |
| 2026-05-05 16:07 | 39.53089 | -120.39008 | 11944 ft | 237 kts | 253° |
| 2026-05-05 16:08 | 39.52494 | -120.40995 | 11960 ft | 237 kts | 253° |
| 2026-05-05 16:08 | 39.51830 | -120.42951 | 11956 ft | 239 kts | 241° |
| 2026-05-05 16:08 | 39.50650 | -120.44466 | 11949 ft | 242 kts | 210° |
| 2026-05-05 16:08 | 39.49060 | -120.45090 | 11966 ft | 238 kts | 178° |
| 2026-05-05 16:09 | 39.47481 | -120.44699 | 11954 ft | 228 kts | 148° |
| 2026-05-05 16:09 | 39.46268 | -120.43501 | 11957 ft | 215 kts | 121° |
| 2026-05-05 16:09 | 39.45602 | -120.41852 | 11967 ft | 202 kts | 97° |
| 2026-05-05 16:09 | 39.45381 | -120.40083 | 11969 ft | 199 kts | 90° |
| 2026-05-05 16:10 | 39.45185 | -120.38313 | 11948 ft | 198 kts | 91° |
| 2026-05-05 16:10 | 39.44986 | -120.36553 | 11943 ft | 197 kts | 91° |
| 2026-05-05 16:10 | 39.44789 | -120.34796 | 11952 ft | 198 kts | 91° |
| 2026-05-05 16:10 | 39.44590 | -120.33030 | 11962 ft | 198 kts | 91° |
| 2026-05-05 16:11 | 39.44388 | -120.31302 | 11872 ft | 198 kts | 93° |
| 2026-05-05 16:11 | 39.42234 | -120.26621 | 11183 ft | 214 kts | 131° |
| 2026-05-05 16:12 | 39.41087 | -120.25383 | 10971 ft | 214 kts | 132° |
| 2026-05-05 16:12 | 39.38811 | -120.22919 | 10529 ft | 213 kts | 132° |
| 2026-05-05 16:13 | 39.35397 | -120.19226 | 10686 ft | 216 kts | 132° |
| 2026-05-05 16:13 | 39.34354 | -120.17881 | 11551 ft | 207 kts | 115° |
| 2026-05-05 16:13 | 39.33788 | -120.16219 | 12329 ft | 201 kts | 102° |
| 2026-05-05 16:14 | 39.32828 | -120.12796 | 13902 ft | 205 kts | 102° |
| 2026-05-05 16:14 | 39.31837 | -120.09280 | 15039 ft | 211 kts | 103° |
| 2026-05-05 16:15 | 39.30827 | -120.05711 | 15879 ft | 213 kts | 103° |
| 2026-05-05 16:15 | 39.29802 | -120.02092 | 16737 ft | 216 kts | 103° |
| 2026-05-05 16:16 | 39.28759 | -119.98405 | 16968 ft | 219 kts | 103° |
| 2026-05-05 16:16 | 39.27708 | -119.94718 | 16979 ft | 219 kts | 103° |
| 2026-05-05 16:17 | 39.26661 | -119.91056 | 16988 ft | 219 kts | 103° |
| 2026-05-05 16:17 | 39.26134 | -119.89212 | 16996 ft | 219 kts | 103° |
| 2026-05-05 16:18 | 39.25878 | -119.85589 | 17004 ft | 200 kts | 53° |
| 2026-05-05 16:18 | 39.26974 | -119.84559 | 17002 ft | 199 kts | 23° |
| 2026-05-05 16:18 | 39.29736 | -119.83966 | 16377 ft | 203 kts | 8° |
| 2026-05-05 16:19 | 39.31135 | -119.83778 | 16022 ft | 202 kts | 11° |
| 2026-05-05 16:19 | 39.32522 | -119.83542 | 15669 ft | 201 kts | 12° |
| 2026-05-05 16:19 | 39.35289 | -119.83036 | 14972 ft | 201 kts | 12° |
| 2026-05-05 16:20 | 39.38044 | -119.82535 | 14300 ft | 199 kts | 12° |
| 2026-05-05 16:20 | 39.40781 | -119.82040 | 13615 ft | 198 kts | 11° |
| 2026-05-05 16:21 | 39.43521 | -119.81543 | 12857 ft | 199 kts | 11° |
| 2026-05-05 16:22 | 39.47558 | -119.80812 | 11852 ft | 192 kts | 11° |
| 2026-05-05 16:22 | 39.50185 | -119.80336 | 11208 ft | 189 kts | 11° |
| 2026-05-05 16:23 | 39.52769 | -119.79870 | 10576 ft | 186 kts | 11° |
| 2026-05-05 16:23 | 39.54045 | -119.79641 | 10266 ft | 184 kts | 11° |
| 2026-05-05 16:23 | 39.56567 | -119.79185 | 9618 ft | 182 kts | 11° |
| 2026-05-05 16:24 | 39.57819 | -119.78957 | 9281 ft | 182 kts | 10° |
| 2026-05-05 16:24 | 39.59068 | -119.78728 | 8941 ft | 182 kts | 9° |
| 2026-05-05 16:24 | 39.61579 | -119.78271 | 8278 ft | 183 kts | 9° |
| 2026-05-05 16:25 | 39.62843 | -119.78042 | 7958 ft | 184 kts | 9° |
| 2026-05-05 16:25 | 39.65390 | -119.77578 | 7486 ft | 185 kts | 8° |
| 2026-05-05 16:25 | 39.66652 | -119.77347 | 7482 ft | 177 kts | 8° |
| 2026-05-05 16:26 | 39.68884 | -119.76943 | 7485 ft | 147 kts | 8° |
| 2026-05-05 16:26 | 39.70744 | -119.76607 | 7519 ft | 130 kts | 8° |
| 2026-05-05 16:27 | 39.71634 | -119.76446 | 7518 ft | 129 kts | 8° |
| 2026-05-05 16:27 | 39.72519 | -119.76287 | 7515 ft | 128 kts | 8° |
| 2026-05-05 16:27 | 39.73405 | -119.76126 | 7509 ft | 128 kts | 8° |
| 2026-05-05 16:27 | 39.74290 | -119.75966 | 7509 ft | 128 kts | 8° |
| 2026-05-05 16:28 | 39.75171 | -119.75807 | 7507 ft | 128 kts | 8° |
| 2026-05-05 16:28 | 39.76055 | -119.75640 | 7505 ft | 128 kts | 11° |
| 2026-05-05 16:28 | 39.76874 | -119.75188 | 7501 ft | 129 kts | 33° |
| 2026-05-05 16:28 | 39.77508 | -119.74369 | 7494 ft | 130 kts | 53° |
| 2026-05-05 16:29 | 39.77864 | -119.73299 | 7491 ft | 132 kts | 74° |
| 2026-05-05 16:29 | 39.77876 | -119.72092 | 7492 ft | 136 kts | 96° |
| 2026-05-05 16:29 | 39.77517 | -119.70947 | 7486 ft | 139 kts | 120° |
| 2026-05-05 16:29 | 39.76818 | -119.70060 | 7488 ft | 143 kts | 145° |
| 2026-05-05 16:30 | 39.75875 | -119.69612 | 7489 ft | 147 kts | 171° |
| 2026-05-05 16:30 | 39.74861 | -119.69725 | 7493 ft | 148 kts | 198° |
| 2026-05-05 16:30 | 39.73969 | -119.70363 | 7501 ft | 146 kts | 217° |
| 2026-05-05 16:30 | 39.73128 | -119.71129 | 7504 ft | 147 kts | 217° |
| 2026-05-05 16:31 | 39.72284 | -119.71889 | 7504 ft | 147 kts | 216° |
| 2026-05-05 16:31 | 39.71447 | -119.72642 | 7511 ft | 147 kts | 217° |
| 2026-05-05 16:31 | 39.70608 | -119.73398 | 7509 ft | 147 kts | 217° |
| 2026-05-05 16:31 | 39.69768 | -119.74157 | 7511 ft | 147 kts | 217° |
| 2026-05-05 16:32 | 39.68919 | -119.74922 | 7518 ft | 149 kts | 217° |
| 2026-05-05 16:32 | 39.68070 | -119.75686 | 7519 ft | 148 kts | 217° |
| 2026-05-05 16:32 | 39.67225 | -119.76440 | 7522 ft | 147 kts | 213° |
| 2026-05-05 16:32 | 39.66257 | -119.76869 | 7462 ft | 148 kts | 186° |
| 2026-05-05 16:33 | 39.65222 | -119.76888 | 7318 ft | 148 kts | 180° |
| 2026-05-05 16:33 | 39.64206 | -119.76889 | 7126 ft | 146 kts | 180° |
| 2026-05-05 16:33 | 39.63179 | -119.76892 | 6956 ft | 148 kts | 181° |
| 2026-05-05 16:33 | 39.62158 | -119.76894 | 6771 ft | 145 kts | 181° |
| 2026-05-05 16:34 | 39.61148 | -119.76897 | 6571 ft | 144 kts | 182° |
| 2026-05-05 16:34 | 39.60173 | -119.76899 | 6378 ft | 139 kts | 182° |
| 2026-05-05 16:34 | 39.59208 | -119.76901 | 6183 ft | 139 kts | 183° |
| 2026-05-05 16:34 | 39.58247 | -119.76904 | 5993 ft | 137 kts | 183° |
| 2026-05-05 16:35 | 39.57291 | -119.76907 | 5794 ft | 137 kts | 182° |
| 2026-05-05 16:35 | 39.56340 | -119.76909 | 5599 ft | 137 kts | 181° |
| 2026-05-05 16:35 | 39.55395 | -119.76912 | 5406 ft | 135 kts | 180° |
| 2026-05-05 16:35 | 39.54458 | -119.76914 | 5202 ft | 134 kts | 180° |
| 2026-05-05 16:36 | 39.53533 | -119.76916 | 5001 ft | 132 kts | 180° |
| 2026-05-05 16:36 | 39.52613 | -119.76919 | 4801 ft | 132 kts | 180° |
| 2026-05-05 16:36 | 39.51697 | -119.76921 | 4595 ft | 131 kts | 180° |
| 2026-05-05 16:36 | 39.50795 | -119.76925 | 4426 ft | 126 kts | 180° |
| 2026-05-05 16:37 | 39.50265 | -119.76927 | 4405 ft | 101 kts | 179° |
| 2026-05-05 16:37 | 39.49703 | -119.76927 | 4413 ft | 64 kts | 180° |
| 2026-05-05 16:37 | 39.49429 | -119.76937 | 4411 ft | 26 kts | 184° |
| 2026-05-05 16:37 | 39.49305 | -119.76979 | 4412 ft | 16 kts | 210° |
| 2026-05-05 16:38 | 39.49271 | -119.77054 | 4408 ft | 10 kts | 288° |
| 2026-05-05 16:38 | 39.49304 | -119.77070 | 4408 ft | 0 kts | 1° |
| 2026-05-05 16:41 | 39.49361 | -119.77070 | 4408 ft | 16 kts | 360° |
| 2026-05-05 16:41 | 39.49470 | -119.77070 | 4410 ft | 16 kts | 360° |
| 2026-05-05 16:42 | 39.49569 | -119.77070 | 4410 ft | 16 kts | 0° |
| 2026-05-05 16:42 | 39.49677 | -119.77070 | 4409 ft | 16 kts | 0° |
| 2026-05-05 16:42 | 39.49785 | -119.77069 | 4409 ft | 16 kts | 0° |
| 2026-05-05 16:42 | 39.49894 | -119.77069 | 4410 ft | 16 kts | 0° |
| 2026-05-05 16:43 | 39.50002 | -119.77069 | 4409 ft | 16 kts | 0° |
| 2026-05-05 16:43 | 39.50110 | -119.77069 | 4408 ft | 16 kts | 0° |
| 2026-05-05 16:43 | 39.50218 | -119.77068 | 4409 ft | 16 kts | 0° |
| 2026-05-05 16:43 | 39.50327 | -119.77068 | 4409 ft | 16 kts | 0° |
| 2026-05-05 16:44 | 39.50435 | -119.77068 | 4409 ft | 16 kts | 0° |
| 2026-05-05 16:44 | 39.50544 | -119.77068 | 4409 ft | 16 kts | 0° |
| 2026-05-05 16:44 | 39.50652 | -119.77067 | 4411 ft | 16 kts | 0° |
| 2026-05-05 16:44 | 39.50724 | -119.77063 | 4411 ft | 8 kts | 14° |
| 2026-05-05 16:45 | 39.50775 | -119.77075 | 4411 ft | 8 kts | 324° |
| 2026-05-05 16:45 | 39.50808 | -119.77137 | 4409 ft | 7 kts | 310° |
| 2026-05-05 16:45 | 39.50869 | -119.77150 | 4409 ft | 8 kts | 353° |
| 2026-05-05 16:45 | 39.50905 | -119.77182 | 4409 ft | 8 kts | 284° |
| 2026-05-05 16:46 | 39.50906 | -119.77250 | 4409 ft | 8 kts | 270° |
| 2026-05-05 16:46 | 39.50907 | -119.77317 | 4410 ft | 8 kts | 270° |
| 2026-05-05 16:46 | 39.50907 | -119.77385 | 4410 ft | 8 kts | 270° |
| 2026-05-05 16:46 | 39.50907 | -119.77452 | 4411 ft | 8 kts | 270° |
| 2026-05-05 16:47 | 39.50907 | -119.77517 | 4412 ft | 2 kts | 270° |
| 2026-05-05 16:47 | 39.50888 | -119.77550 | 4412 ft | 7 kts | 185° |
| 2026-05-05 16:47 | 39.50884 | -119.77550 | 4412 ft | 0 kts | 183° |